< < Back
Terminal Aerodrome Forecast


Current Version              Previous Versions:   1  2  3  4  5  6  7  8  9  

Terminal Aerodrome Forecast

238
FTUS44 KBMX 220500
TAFANB
TAF
KANB 220533Z 2206/2306 VRB03KT P6SM FEW100 SCT250
     FM221800 11007KT P6SM BKN050
     FM222200 11007KT P6SM BKN025=

Latest METAR

176
SAUS70 KWBC 220900
MTRANB
METAR KANB 220853Z AUTO 00000KT 10SM CLR 02/00 A3040 RMK AO2 SLP298
T00220000 53001


USA.gov is the U.S. government's official web portal to all federal, state and local government web resources and services.